Ana Sayfa
METAR-TAF:

METAR-TAF

Havaalanları :

Kosrae, Mikronezya

Enlem: 05-21N, Boylam: 162-57E, yükseklik: 3 m

Güncel hava durumu gözlemi

Rapor saat 03:50 UTC de 15 saat ve 34 dakika önce yapıldı.
Rüzgar güneydan 5 kt
Sıcaklık 27°C
Nem 89%
Basınç 1005 hPa
Görüş mesafesi: 16.1 km
1800 ft yükseklikte parçalı bulutlu
13000 ft yükseklikte parçalı çok bulutlu

METAR: PTSA 190350Z 19005KT 10SM SCT018 BKN130 0VC300 27/25 A2967 RMK LAST

Saat: 06:24 (19:24 UTC)

Tahmin

Rapor saat 23:30 UTC de 19 saat ve 54 dakika önce yapıldı.
Ayın 19'si saat 00 UTC'den ayın 19'si saat 24 UTC'ye kadar geçerli Tahmin
Rüzgar doğu/kuzeydoğudan 11 kt
Görüş mesafesi: 10 km
1500 ft yükseklikte parçalı çok bulutlu
13000 ft yükseklikte parçalı çok bulutlu
Civarda sağanaklar
Geçici
ayın 19'si saat 00 UTC'den ayın 19'si saat 03 UTC'ye kadar
Görüş mesafesi: 6.4 km
1500 ft yükseklikte çok bulutlu
sağanak yağmurlar

TAF: PTSA 182330Z 1900/1924 06011KT P6SM VCSH BKN015 BKN130 TEMPO 1900/1903 4SM SHRA OVC015

4.000'den fazla havaalanı için hava durumu gözlemleri ve tahminleri (METAR ve TAF raporları).

Kullanılabilir istasyonlar harita üzerinde sarı ve kırmızı noktalarla gösterilir.

İstasyonun adını görmek için fareyi noktanın üzerinde gezdirin.

Sonrasında hava gözlem ve tahminlerini görmek için tıklayın.

Haritayı değiştirmek için: yaklaştırmak için siyah artı işaretli yeşil düğmeye ve uzaklaştırmak için de eksi işaretli düğmeye hızla tıklayın; bitişik haritalar için yeşil okları kullanın.


METAR-TAF: